Hlavní strana
METAR-TAF:

METAR-TAF

Letiště :

Vídeňské Nové Město, Rakousko

zeměpisná šířka: 47-50-36N, zeměpisná délka: 016-15-29E, výška: 272 m

Aktuální stav počasí

Zpráva byla vytvořena před 11 hodinami a 14 minutami, v 16:00 UTC
Severoseverovýchodní vítr 4 kt
Teplota
Tlak

METAR: LOAN 221600Z 02004KT 30KM FEW040CU SCT300CI

Čas: 05:14 (03:14 UTC)

Předpověď počasí

Zpráva byla vytvořena před 15 hodinami a 49 minutami, v 11:25 UTC
Předpověď platná od 22 v 12 UTC do 22 v 21 UTC
Severní vítr 8 kt
Viditelnost 10 km a více
Polojasno ve výšce 4000 ft
Změna
od 22 v 20 UTC do 22 v 21 UTC
Oblačno až skoro zataženo ve výšce 3000 ft

TAF: LOAN 221125Z 2212/2221 36008KT 9999 SCT040 BECMG 2220/2221 BKN030

Stav a předpovědi počasí z více než 4 000 letišť (zprávy METAR a TAF).

Červené a žluté tečky na mapě představují dostupné meteorologické stanice.

Když kurzor umístíte na tečku, zobrazí se název stanice.

Pak kliknutím zobrazíte stav a předpověď počasí.

Chcete-li změnit mapu, kliknutím na zelené tlačítko se znaménkem +mapu přiblížíte, kliknutím na zelené tlačítko se znaménkem – mapu oddálíte a kliknutím na zelené šipky přejdete na sousední mapy.


METAR-TAF: